sensor_id;sensor_type;location;lat;lon;timestamp;P1;durP1;ratioP1;P2;durP2;ratioP2
25153;SDS011;47555;51.038;6.280;2023-02-01T00:01:30;15.27;;;6.07;;
25153;SDS011;47555;51.038;6.280;2023-02-01T00:03:56;15.20;;;5.65;;
25153;SDS011;47555;51.038;6.280;2023-02-01T00:06:22;13.38;;;5.43;;
25153;SDS011;47555;51.038;6.280;2023-02-01T00:08:47;8.40;;;4.78;;
25153;SDS011;47555;51.038;6.280;2023-02-01T00:11:13;17.88;;;4.75;;
25153;SDS011;47555;51.038;6.280;2023-02-01T00:13:40;15.23;;;4.95;;
25153;SDS011;47555;51.038;6.280;2023-02-01T00:18:33;13.82;;;4.75;;
25153;SDS011;47555;51.038;6.280;2023-02-01T00:20:59;16.95;;;4.50;;
25153;SDS011;47555;51.038;6.280;2023-02-01T00:23:25;12.40;;;6.18;;
25153;SDS011;47555;51.038;6.280;2023-02-01T00:25:51;17.10;;;4.50;;
25153;SDS011;47555;51.038;6.280;2023-02-01T00:28:16;6.75;;;3.42;;
25153;SDS011;47555;51.038;6.280;2023-02-01T00:30:42;15.98;;;4.72;;
25153;SDS011;47555;51.038;6.280;2023-02-01T00:33:07;13.88;;;4.57;;
25153;SDS011;47555;51.038;6.280;2023-02-01T00:35:33;10.38;;;3.85;;
25153;SDS011;47555;51.038;6.280;2023-02-01T00:38:00;13.68;;;4.70;;
25153;SDS011;47555;51.038;6.280;2023-02-01T00:40:26;16.38;;;4.65;;
25153;SDS011;47555;51.038;6.280;2023-02-01T00:42:51;10.63;;;4.00;;
25153;SDS011;47555;51.038;6.280;2023-02-01T00:45:18;8.68;;;3.63;;
25153;SDS011;47555;51.038;6.280;2023-02-01T00:47:44;14.68;;;4.03;;
25153;SDS011;47555;51.038;6.280;2023-02-01T00:50:09;11.98;;;3.55;;
25153;SDS011;47555;51.038;6.280;2023-02-01T00:52:35;9.27;;;3.95;;
25153;SDS011;47555;51.038;6.280;2023-02-01T00:55:01;12.15;;;3.60;;
25153;SDS011;47555;51.038;6.280;2023-02-01T00:57:26;11.90;;;3.80;;
25153;SDS011;47555;51.038;6.280;2023-02-01T00:59:52;7.80;;;3.42;;
25153;SDS011;47555;51.038;6.280;2023-02-01T01:02:17;18.27;;;4.72;;
25153;SDS011;47555;51.038;6.280;2023-02-01T01:04:43;10.82;;;3.97;;
25153;SDS011;47555;51.038;6.280;2023-02-01T01:07:08;10.45;;;3.63;;
25153;SDS011;47555;51.038;6.280;2023-02-01T01:09:34;15.32;;;4.35;;
25153;SDS011;47555;51.038;6.280;2023-02-01T01:12:00;8.18;;;4.00;;
25153;SDS011;47555;51.038;6.280;2023-02-01T01:14:27;14.65;;;4.38;;
25153;SDS011;47555;51.038;6.280;2023-02-01T01:16:53;13.10;;;4.30;;
25153;SDS011;47555;51.038;6.280;2023-02-01T01:19:19;11.07;;;3.70;;
25153;SDS011;47555;51.038;6.280;2023-02-01T01:21:44;7.70;;;3.63;;
25153;SDS011;47555;51.038;6.280;2023-02-01T01:24:10;16.27;;;4.47;;
25153;SDS011;47555;51.038;6.280;2023-02-01T01:26:35;8.70;;;3.78;;
25153;SDS011;47555;51.038;6.280;2023-02-01T01:29:01;16.15;;;4.15;;
25153;SDS011;47555;51.038;6.280;2023-02-01T01:31:28;9.45;;;3.85;;
25153;SDS011;47555;51.038;6.280;2023-02-01T01:33:54;11.93;;;3.83;;
25153;SDS011;47555;51.038;6.280;2023-02-01T01:36:22;8.20;;;4.40;;
25153;SDS011;47555;51.038;6.280;2023-02-01T01:38:51;14.65;;;4.20;;
25153;SDS011;47555;51.038;6.280;2023-02-01T01:41:21;14.18;;;4.55;;
25153;SDS011;47555;51.038;6.280;2023-02-01T01:43:58;12.25;;;4.38;;
25153;SDS011;47555;51.038;6.280;2023-02-01T01:46:33;15.85;;;4.78;;
25153;SDS011;47555;51.038;6.280;2023-02-01T01:49:13;12.23;;;4.57;;
25153;SDS011;47555;51.038;6.280;2023-02-01T01:54:27;12.70;;;4.68;;
25153;SDS011;47555;51.038;6.280;2023-02-01T01:56:59;15.77;;;4.88;;
25153;SDS011;47555;51.038;6.280;2023-02-01T01:59:28;11.02;;;4.20;;
25153;SDS011;47555;51.038;6.280;2023-02-01T02:01:57;17.15;;;5.72;;
25153;SDS011;47555;51.038;6.280;2023-02-01T02:04:23;17.95;;;5.72;;
25153;SDS011;47555;51.038;6.280;2023-02-01T02:06:57;17.20;;;6.40;;
25153;SDS011;47555;51.038;6.280;2023-02-01T02:09:30;20.55;;;6.28;;
25153;SDS011;47555;51.038;6.280;2023-02-01T02:11:55;14.20;;;6.13;;
25153;SDS011;47555;51.038;6.280;2023-02-01T02:14:21;14.23;;;5.93;;
25153;SDS011;47555;51.038;6.280;2023-02-01T02:16:58;13.95;;;6.00;;
25153;SDS011;47555;51.038;6.280;2023-02-01T02:33:56;15.05;;;6.30;;
25153;SDS011;47555;51.038;6.280;2023-02-01T02:42:08;17.70;;;6.50;;
25153;SDS011;47555;51.038;6.280;2023-02-01T02:45:08;23.88;;;6.25;;
25153;SDS011;47555;51.038;6.280;2023-02-01T02:50:38;14.60;;;5.75;;
25153;SDS011;47555;51.038;6.280;2023-02-01T02:53:34;16.80;;;5.68;;
25153;SDS011;47555;51.038;6.280;2023-02-01T02:56:27;16.35;;;6.40;;
25153;SDS011;47555;51.038;6.280;2023-02-01T02:59:14;14.10;;;5.72;;
25153;SDS011;47555;51.038;6.280;2023-02-01T03:02:02;14.40;;;5.45;;
25153;SDS011;47555;51.038;6.280;2023-02-01T03:04:46;20.95;;;6.03;;
25153;SDS011;47555;51.038;6.280;2023-02-01T03:07:42;13.35;;;5.47;;
25153;SDS011;47555;51.038;6.280;2023-02-01T03:10:10;14.65;;;5.70;;
25153;SDS011;47555;51.038;6.280;2023-02-01T03:12:45;16.15;;;5.13;;
25153;SDS011;47555;51.038;6.280;2023-02-01T03:15:20;15.25;;;5.20;;
25153;SDS011;47555;51.038;6.280;2023-02-01T03:17:56;14.45;;;5.05;;
25153;SDS011;47555;51.038;6.280;2023-02-01T03:20:26;15.13;;;5.32;;
25153;SDS011;47555;51.038;6.280;2023-02-01T03:22:54;12.63;;;4.80;;
25153;SDS011;47555;51.038;6.280;2023-02-01T03:25:22;14.60;;;5.28;;
25153;SDS011;47555;51.038;6.280;2023-02-01T03:27:57;17.55;;;5.13;;
25153;SDS011;47555;51.038;6.280;2023-02-01T03:30:49;17.70;;;5.47;;
25153;SDS011;47555;51.038;6.280;2023-02-01T03:33:16;17.20;;;5.18;;
25153;SDS011;47555;51.038;6.280;2023-02-01T03:44:00;13.85;;;4.00;;
25153;SDS011;47555;51.038;6.280;2023-02-01T03:46:34;14.90;;;4.38;;
25153;SDS011;47555;51.038;6.280;2023-02-01T03:49:08;16.88;;;4.07;;
25153;SDS011;47555;51.038;6.280;2023-02-01T03:51:36;14.02;;;4.50;;
25153;SDS011;47555;51.038;6.280;2023-02-01T03:54:05;15.18;;;4.20;;
25153;SDS011;47555;51.038;6.280;2023-02-01T03:56:33;13.20;;;4.35;;
25153;SDS011;47555;51.038;6.280;2023-02-01T03:59:02;17.77;;;4.28;;
25153;SDS011;47555;51.038;6.280;2023-02-01T04:01:29;15.82;;;4.15;;
25153;SDS011;47555;51.038;6.280;2023-02-01T04:03:55;13.68;;;4.22;;
25153;SDS011;47555;51.038;6.280;2023-02-01T04:06:22;15.32;;;3.75;;
25153;SDS011;47555;51.038;6.280;2023-02-01T04:08:48;12.45;;;4.45;;
25153;SDS011;47555;51.038;6.280;2023-02-01T04:11:14;12.65;;;4.00;;
25153;SDS011;47555;51.038;6.280;2023-02-01T04:13:40;11.98;;;4.22;;
25153;SDS011;47555;51.038;6.280;2023-02-01T04:16:05;12.68;;;3.47;;
25153;SDS011;47555;51.038;6.280;2023-02-01T04:18:31;10.93;;;4.40;;
25153;SDS011;47555;51.038;6.280;2023-02-01T04:20:56;12.65;;;4.07;;
25153;SDS011;47555;51.038;6.280;2023-02-01T04:23:22;12.10;;;3.65;;
25153;SDS011;47555;51.038;6.280;2023-02-01T04:25:48;11.85;;;5.03;;
25153;SDS011;47555;51.038;6.280;2023-02-01T04:28:13;14.93;;;4.10;;
25153;SDS011;47555;51.038;6.280;2023-02-01T04:30:39;11.02;;;3.42;;
25153;SDS011;47555;51.038;6.280;2023-02-01T04:33:04;13.48;;;3.60;;
25153;SDS011;47555;51.038;6.280;2023-02-01T04:35:33;10.27;;;3.25;;
25153;SDS011;47555;51.038;6.280;2023-02-01T04:37:59;11.80;;;3.55;;
25153;SDS011;47555;51.038;6.280;2023-02-01T04:40:24;10.57;;;3.67;;
25153;SDS011;47555;51.038;6.280;2023-02-01T04:42:50;12.07;;;4.43;;
25153;SDS011;47555;51.038;6.280;2023-02-01T04:45:15;6.30;;;2.58;;
25153;SDS011;47555;51.038;6.280;2023-02-01T04:47:41;10.05;;;2.88;;
25153;SDS011;47555;51.038;6.280;2023-02-01T04:50:07;18.48;;;3.20;;
25153;SDS011;47555;51.038;6.280;2023-02-01T04:52:35;16.38;;;3.30;;
25153;SDS011;47555;51.038;6.280;2023-02-01T04:55:02;10.20;;;2.78;;
25153;SDS011;47555;51.038;6.280;2023-02-01T04:57:28;11.90;;;2.63;;
25153;SDS011;47555;51.038;6.280;2023-02-01T04:59:54;11.43;;;3.40;;
25153;SDS011;47555;51.038;6.280;2023-02-01T05:02:19;12.85;;;3.20;;
25153;SDS011;47555;51.038;6.280;2023-02-01T05:04:45;14.82;;;2.78;;
25153;SDS011;47555;51.038;6.280;2023-02-01T05:07:10;12.13;;;3.15;;
25153;SDS011;47555;51.038;6.280;2023-02-01T05:09:36;11.45;;;3.53;;
25153;SDS011;47555;51.038;6.280;2023-02-01T05:12:02;10.93;;;3.17;;
25153;SDS011;47555;51.038;6.280;2023-02-01T05:14:46;9.88;;;2.40;;
25153;SDS011;47555;51.038;6.280;2023-02-01T05:17:12;13.50;;;3.25;;
25153;SDS011;47555;51.038;6.280;2023-02-01T05:19:38;15.27;;;2.92;;
25153;SDS011;47555;51.038;6.280;2023-02-01T05:22:04;8.38;;;2.70;;
25153;SDS011;47555;51.038;6.280;2023-02-01T05:24:29;8.90;;;2.40;;
25153;SDS011;47555;51.038;6.280;2023-02-01T05:26:55;14.82;;;3.08;;
25153;SDS011;47555;51.038;6.280;2023-02-01T05:29:20;12.38;;;2.78;;
25153;SDS011;47555;51.038;6.280;2023-02-01T05:31:46;11.05;;;3.20;;
25153;SDS011;47555;51.038;6.280;2023-02-01T05:34:13;15.90;;;2.95;;
25153;SDS011;47555;51.038;6.280;2023-02-01T05:36:39;6.95;;;2.38;;
25153;SDS011;47555;51.038;6.280;2023-02-01T05:39:05;10.88;;;2.30;;
25153;SDS011;47555;51.038;6.280;2023-02-01T05:41:30;15.55;;;3.95;;
25153;SDS011;47555;51.038;6.280;2023-02-01T05:43:56;12.27;;;2.85;;
25153;SDS011;47555;51.038;6.280;2023-02-01T05:46:21;12.85;;;3.10;;
25153;SDS011;47555;51.038;6.280;2023-02-01T05:48:47;12.57;;;3.55;;
25153;SDS011;47555;51.038;6.280;2023-02-01T05:51:13;18.00;;;2.78;;
25153;SDS011;47555;51.038;6.280;2023-02-01T05:53:38;14.05;;;3.22;;
25153;SDS011;47555;51.038;6.280;2023-02-01T05:56:04;14.45;;;2.85;;
25153;SDS011;47555;51.038;6.280;2023-02-01T05:58:30;12.27;;;2.92;;
25153;SDS011;47555;51.038;6.280;2023-02-01T06:00:56;11.80;;;2.67;;
25153;SDS011;47555;51.038;6.280;2023-02-01T06:03:24;10.63;;;2.55;;
25153;SDS011;47555;51.038;6.280;2023-02-01T06:05:50;10.65;;;3.08;;
25153;SDS011;47555;51.038;6.280;2023-02-01T06:08:15;8.60;;;2.83;;
25153;SDS011;47555;51.038;6.280;2023-02-01T06:10:42;13.80;;;2.85;;
25153;SDS011;47555;51.038;6.280;2023-02-01T06:13:08;8.30;;;3.15;;
25153;SDS011;47555;51.038;6.280;2023-02-01T06:15:33;13.95;;;3.22;;
25153;SDS011;47555;51.038;6.280;2023-02-01T06:17:59;8.60;;;2.45;;
25153;SDS011;47555;51.038;6.280;2023-02-01T06:20:24;7.95;;;2.28;;
25153;SDS011;47555;51.038;6.280;2023-02-01T06:22:50;12.55;;;2.70;;
25153;SDS011;47555;51.038;6.280;2023-02-01T06:25:17;11.43;;;3.22;;
25153;SDS011;47555;51.038;6.280;2023-02-01T06:27:44;12.32;;;2.95;;
25153;SDS011;47555;51.038;6.280;2023-02-01T06:30:10;7.57;;;2.78;;
25153;SDS011;47555;51.038;6.280;2023-02-01T06:32:38;16.17;;;3.72;;
25153;SDS011;47555;51.038;6.280;2023-02-01T06:35:05;12.10;;;2.50;;
25153;SDS011;47555;51.038;6.280;2023-02-01T06:37:32;12.77;;;3.05;;
25153;SDS011;47555;51.038;6.280;2023-02-01T06:39:58;10.32;;;2.90;;
25153;SDS011;47555;51.038;6.280;2023-02-01T06:42:23;16.33;;;3.00;;
25153;SDS011;47555;51.038;6.280;2023-02-01T06:44:49;8.32;;;2.60;;
25153;SDS011;47555;51.038;6.280;2023-02-01T06:47:14;8.27;;;2.55;;
25153;SDS011;47555;51.038;6.280;2023-02-01T06:49:40;12.00;;;2.70;;
25153;SDS011;47555;51.038;6.280;2023-02-01T06:52:05;8.05;;;2.58;;
25153;SDS011;47555;51.038;6.280;2023-02-01T06:54:31;9.15;;;2.53;;
25153;SDS011;47555;51.038;6.280;2023-02-01T06:56:58;16.42;;;3.30;;
25153;SDS011;47555;51.038;6.280;2023-02-01T06:59:24;13.57;;;3.28;;
25153;SDS011;47555;51.038;6.280;2023-02-01T07:01:49;10.65;;;3.38;;
25153;SDS011;47555;51.038;6.280;2023-02-01T07:04:15;9.30;;;3.08;;
25153;SDS011;47555;51.038;6.280;2023-02-01T07:06:40;6.68;;;2.60;;
25153;SDS011;47555;51.038;6.280;2023-02-01T07:09:06;14.02;;;2.83;;
25153;SDS011;47555;51.038;6.280;2023-02-01T07:11:32;12.68;;;2.97;;
25153;SDS011;47555;51.038;6.280;2023-02-01T07:13:58;9.00;;;2.78;;
25153;SDS011;47555;51.038;6.280;2023-02-01T07:16:23;11.40;;;3.30;;
25153;SDS011;47555;51.038;6.280;2023-02-01T07:18:50;12.65;;;2.95;;
25153;SDS011;47555;51.038;6.280;2023-02-01T07:21:16;17.77;;;3.08;;
25153;SDS011;47555;51.038;6.280;2023-02-01T07:23:42;15.57;;;3.17;;
25153;SDS011;47555;51.038;6.280;2023-02-01T07:26:09;14.30;;;2.72;;
25153;SDS011;47555;51.038;6.280;2023-02-01T07:28:37;11.55;;;2.75;;
25153;SDS011;47555;51.038;6.280;2023-02-01T07:31:07;13.55;;;2.72;;
25153;SDS011;47555;51.038;6.280;2023-02-01T07:33:34;12.10;;;2.97;;
25153;SDS011;47555;51.038;6.280;2023-02-01T07:36:01;12.38;;;2.90;;
25153;SDS011;47555;51.038;6.280;2023-02-01T07:38:28;10.80;;;2.78;;
25153;SDS011;47555;51.038;6.280;2023-02-01T07:41:01;16.80;;;3.38;;
25153;SDS011;47555;51.038;6.280;2023-02-01T07:43:28;10.02;;;2.80;;
25153;SDS011;47555;51.038;6.280;2023-02-01T07:45:54;13.77;;;3.05;;
25153;SDS011;47555;51.038;6.280;2023-02-01T07:48:20;11.63;;;3.25;;
25153;SDS011;47555;51.038;6.280;2023-02-01T07:50:47;21.70;;;4.20;;
25153;SDS011;47555;51.038;6.280;2023-02-01T07:53:13;18.73;;;3.75;;
25153;SDS011;47555;51.038;6.280;2023-02-01T07:55:39;8.68;;;2.45;;
25153;SDS011;47555;51.038;6.280;2023-02-01T07:58:05;16.08;;;3.15;;
25153;SDS011;47555;51.038;6.280;2023-02-01T08:00:31;14.23;;;2.88;;
25153;SDS011;47555;51.038;6.280;2023-02-01T08:03:16;9.95;;;2.60;;
25153;SDS011;47555;51.038;6.280;2023-02-01T08:05:41;7.30;;;3.00;;
25153;SDS011;47555;51.038;6.280;2023-02-01T08:08:07;10.35;;;2.75;;
25153;SDS011;47555;51.038;6.280;2023-02-01T08:10:33;12.73;;;3.10;;
25153;SDS011;47555;51.038;6.280;2023-02-01T08:13:00;8.57;;;2.38;;
25153;SDS011;47555;51.038;6.280;2023-02-01T08:15:26;10.77;;;3.20;;
25153;SDS011;47555;51.038;6.280;2023-02-01T08:17:52;13.10;;;3.05;;
25153;SDS011;47555;51.038;6.280;2023-02-01T08:22:53;10.35;;;3.13;;
25153;SDS011;47555;51.038;6.280;2023-02-01T08:25:19;18.27;;;3.30;;
25153;SDS011;47555;51.038;6.280;2023-02-01T08:27:46;16.55;;;3.92;;
25153;SDS011;47555;51.038;6.280;2023-02-01T08:30:11;13.20;;;2.97;;
25153;SDS011;47555;51.038;6.280;2023-02-01T08:32:37;13.52;;;2.95;;
25153;SDS011;47555;51.038;6.280;2023-02-01T08:35:03;11.57;;;2.97;;
25153;SDS011;47555;51.038;6.280;2023-02-01T08:37:29;12.65;;;3.53;;
25153;SDS011;47555;51.038;6.280;2023-02-01T08:39:55;12.13;;;2.55;;
25153;SDS011;47555;51.038;6.280;2023-02-01T08:42:21;7.43;;;2.75;;
25153;SDS011;47555;51.038;6.280;2023-02-01T08:45:05;13.40;;;2.95;;
25153;SDS011;47555;51.038;6.280;2023-02-01T08:47:33;10.45;;;2.67;;
25153;SDS011;47555;51.038;6.280;2023-02-01T08:50:00;12.57;;;3.15;;
25153;SDS011;47555;51.038;6.280;2023-02-01T08:52:26;14.73;;;3.20;;
25153;SDS011;47555;51.038;6.280;2023-02-01T08:54:51;10.02;;;3.17;;
25153;SDS011;47555;51.038;6.280;2023-02-01T08:57:17;11.48;;;3.13;;
25153;SDS011;47555;51.038;6.280;2023-02-01T08:59:43;16.20;;;3.00;;
25153;SDS011;47555;51.038;6.280;2023-02-01T09:02:14;10.13;;;3.33;;
25153;SDS011;47555;51.038;6.280;2023-02-01T09:04:41;10.80;;;2.83;;
25153;SDS011;47555;51.038;6.280;2023-02-01T09:07:10;12.23;;;3.28;;
25153;SDS011;47555;51.038;6.280;2023-02-01T09:09:36;11.82;;;3.05;;
25153;SDS011;47555;51.038;6.280;2023-02-01T09:12:02;15.77;;;3.10;;
25153;SDS011;47555;51.038;6.280;2023-02-01T09:14:28;23.55;;;4.40;;
25153;SDS011;47555;51.038;6.280;2023-02-01T09:16:54;11.60;;;3.55;;
25153;SDS011;47555;51.038;6.280;2023-02-01T09:19:19;10.55;;;3.53;;
25153;SDS011;47555;51.038;6.280;2023-02-01T09:21:45;10.35;;;3.30;;
25153;SDS011;47555;51.038;6.280;2023-02-01T09:24:10;13.68;;;3.38;;
25153;SDS011;47555;51.038;6.280;2023-02-01T09:26:37;16.92;;;3.17;;
25153;SDS011;47555;51.038;6.280;2023-02-01T09:29:03;10.68;;;3.25;;
25153;SDS011;47555;51.038;6.280;2023-02-01T09:31:31;14.02;;;2.97;;
25153;SDS011;47555;51.038;6.280;2023-02-01T09:33:57;10.10;;;2.90;;
25153;SDS011;47555;51.038;6.280;2023-02-01T09:36:23;8.02;;;2.70;;
25153;SDS011;47555;51.038;6.280;2023-02-01T09:38:48;17.30;;;3.22;;
25153;SDS011;47555;51.038;6.280;2023-02-01T09:41:28;12.52;;;3.50;;
25153;SDS011;47555;51.038;6.280;2023-02-01T09:44:18;11.25;;;3.28;;
25153;SDS011;47555;51.038;6.280;2023-02-01T09:46:57;8.68;;;3.60;;
25153;SDS011;47555;51.038;6.280;2023-02-01T09:49:29;12.75;;;2.88;;
25153;SDS011;47555;51.038;6.280;2023-02-01T09:51:57;10.13;;;2.75;;
25153;SDS011;47555;51.038;6.280;2023-02-01T09:54:26;11.27;;;3.22;;
25153;SDS011;47555;51.038;6.280;2023-02-01T09:59:34;8.80;;;2.45;;
25153;SDS011;47555;51.038;6.280;2023-02-01T10:02:20;10.88;;;3.20;;
25153;SDS011;47555;51.038;6.280;2023-02-01T10:04:49;12.23;;;3.20;;
25153;SDS011;47555;51.038;6.280;2023-02-01T10:10:49;8.38;;;2.88;;
25153;SDS011;47555;51.038;6.280;2023-02-01T10:24:00;11.02;;;2.92;;
25153;SDS011;47555;51.038;6.280;2023-02-01T10:26:59;12.40;;;2.88;;
25153;SDS011;47555;51.038;6.280;2023-02-01T10:29:36;18.70;;;3.60;;
25153;SDS011;47555;51.038;6.280;2023-02-01T10:32:10;14.20;;;3.67;;
25153;SDS011;47555;51.038;6.280;2023-02-01T10:34:42;17.25;;;3.60;;
25153;SDS011;47555;51.038;6.280;2023-02-01T10:37:16;14.15;;;3.30;;
25153;SDS011;47555;51.038;6.280;2023-02-01T10:39:48;13.30;;;3.15;;
25153;SDS011;47555;51.038;6.280;2023-02-01T10:42:17;12.95;;;3.63;;
25153;SDS011;47555;51.038;6.280;2023-02-01T10:44:45;10.57;;;3.35;;
25153;SDS011;47555;51.038;6.280;2023-02-01T10:47:12;12.43;;;3.50;;
25153;SDS011;47555;51.038;6.280;2023-02-01T10:49:40;13.43;;;3.00;;
25153;SDS011;47555;51.038;6.280;2023-02-01T10:52:20;10.52;;;3.60;;
25153;SDS011;47555;51.038;6.280;2023-02-01T10:57:56;8.55;;;2.92;;
25153;SDS011;47555;51.038;6.280;2023-02-01T11:00:27;16.42;;;3.35;;
25153;SDS011;47555;51.038;6.280;2023-02-01T11:05:24;10.88;;;2.90;;
25153;SDS011;47555;51.038;6.280;2023-02-01T11:07:51;11.50;;;3.28;;
25153;SDS011;47555;51.038;6.280;2023-02-01T11:10:34;10.15;;;3.47;;
25153;SDS011;47555;51.038;6.280;2023-02-01T11:13:02;10.27;;;3.75;;
25153;SDS011;47555;51.038;6.280;2023-02-01T11:15:29;10.32;;;3.08;;
25153;SDS011;47555;51.038;6.280;2023-02-01T11:17:55;12.75;;;3.22;;
25153;SDS011;47555;51.038;6.280;2023-02-01T11:23:11;8.90;;;2.53;;
25153;SDS011;47555;51.038;6.280;2023-02-01T11:25:46;7.85;;;2.67;;
25153;SDS011;47555;51.038;6.280;2023-02-01T11:28:26;12.45;;;3.15;;
25153;SDS011;47555;51.038;6.280;2023-02-01T11:30:56;12.00;;;2.78;;
25153;SDS011;47555;51.038;6.280;2023-02-01T11:33:25;9.13;;;2.78;;
25153;SDS011;47555;51.038;6.280;2023-02-01T11:35:55;13.57;;;3.60;;
25153;SDS011;47555;51.038;6.280;2023-02-01T11:38:29;19.50;;;2.83;;
25153;SDS011;47555;51.038;6.280;2023-02-01T11:46:18;7.43;;;3.08;;
25153;SDS011;47555;51.038;6.280;2023-02-01T11:54:14;13.35;;;2.80;;
25153;SDS011;47555;51.038;6.280;2023-02-01T11:57:09;12.52;;;3.20;;
25153;SDS011;47555;51.038;6.280;2023-02-01T11:59:49;10.48;;;2.80;;
25153;SDS011;47555;51.038;6.280;2023-02-01T12:15:46;12.15;;;2.88;;
25153;SDS011;47555;51.038;6.280;2023-02-01T12:35:09;10.68;;;2.10;;
25153;SDS011;47555;51.038;6.280;2023-02-01T12:37:55;9.85;;;2.85;;
25153;SDS011;47555;51.038;6.280;2023-02-01T12:43:17;7.18;;;2.08;;
25153;SDS011;47555;51.038;6.280;2023-02-01T12:46:00;10.40;;;2.15;;
25153;SDS011;47555;51.038;6.280;2023-02-01T12:48:42;10.60;;;2.30;;
25153;SDS011;47555;51.038;6.280;2023-02-01T12:51:30;10.93;;;3.03;;
25153;SDS011;47555;51.038;6.280;2023-02-01T12:54:01;9.98;;;2.38;;
25153;SDS011;47555;51.038;6.280;2023-02-01T13:07:47;11.90;;;2.35;;
25153;SDS011;47555;51.038;6.280;2023-02-01T13:16:16;8.68;;;2.28;;
25153;SDS011;47555;51.038;6.280;2023-02-01T13:18:54;10.93;;;2.92;;
25153;SDS011;47555;51.038;6.280;2023-02-01T13:21:26;10.10;;;2.85;;
25153;SDS011;47555;51.038;6.280;2023-02-01T13:23:56;7.85;;;2.22;;
25153;SDS011;47555;51.038;6.280;2023-02-01T13:26:23;9.15;;;2.20;;
25153;SDS011;47555;51.038;6.280;2023-02-01T13:28:49;13.05;;;2.58;;
25153;SDS011;47555;51.038;6.280;2023-02-01T13:31:33;11.70;;;2.95;;
25153;SDS011;47555;51.038;6.280;2023-02-01T13:37:31;11.15;;;2.20;;
25153;SDS011;47555;51.038;6.280;2023-02-01T13:40:09;13.57;;;2.08;;
25153;SDS011;47555;51.038;6.280;2023-02-01T13:43:09;9.88;;;2.30;;
25153;SDS011;47555;51.038;6.280;2023-02-01T13:45:35;7.50;;;1.73;;
25153;SDS011;47555;51.038;6.280;2023-02-01T13:48:07;8.52;;;2.35;;
25153;SDS011;47555;51.038;6.280;2023-02-01T13:50:48;10.63;;;2.35;;
25153;SDS011;47555;51.038;6.280;2023-02-01T13:53:18;10.73;;;2.50;;
25153;SDS011;47555;51.038;6.280;2023-02-01T13:55:57;6.75;;;2.60;;
25153;SDS011;47555;51.038;6.280;2023-02-01T13:58:40;6.72;;;2.10;;
25153;SDS011;47555;51.038;6.280;2023-02-01T14:03:50;9.43;;;2.42;;
25153;SDS011;47555;51.038;6.280;2023-02-01T14:19:22;11.82;;;2.42;;
25153;SDS011;47555;51.038;6.280;2023-02-01T14:21:53;9.32;;;2.47;;
25153;SDS011;47555;51.038;6.280;2023-02-01T14:24:24;7.07;;;2.33;;
25153;SDS011;47555;51.038;6.280;2023-02-01T14:29:42;6.85;;;2.42;;
25153;SDS011;47555;51.038;6.280;2023-02-01T14:32:24;11.93;;;2.60;;
25153;SDS011;47555;51.038;6.280;2023-02-01T14:34:56;11.07;;;2.55;;
25153;SDS011;47555;51.038;6.280;2023-02-01T14:37:26;5.07;;;2.08;;
25153;SDS011;47555;51.038;6.280;2023-02-01T14:39:59;7.32;;;2.45;;
25153;SDS011;47555;51.038;6.280;2023-02-01T14:47:43;10.52;;;2.88;;
25153;SDS011;47555;51.038;6.280;2023-02-01T14:50:24;8.65;;;2.45;;
25153;SDS011;47555;51.038;6.280;2023-02-01T14:52:58;6.78;;;2.13;;
25153;SDS011;47555;51.038;6.280;2023-02-01T15:04:04;7.70;;;1.88;;
25153;SDS011;47555;51.038;6.280;2023-02-01T15:06:46;8.57;;;2.35;;
25153;SDS011;47555;51.038;6.280;2023-02-01T15:20:00;10.65;;;2.35;;
25153;SDS011;47555;51.038;6.280;2023-02-01T15:22:28;9.60;;;2.58;;
25153;SDS011;47555;51.038;6.280;2023-02-01T15:24:56;7.55;;;1.90;;
25153;SDS011;47555;51.038;6.280;2023-02-01T15:27:26;11.27;;;2.40;;
25153;SDS011;47555;51.038;6.280;2023-02-01T15:29:52;9.20;;;3.65;;
25153;SDS011;47555;51.038;6.280;2023-02-01T15:32:29;9.48;;;2.45;;
25153;SDS011;47555;51.038;6.280;2023-02-01T15:34:59;9.05;;;2.60;;
25153;SDS011;47555;51.038;6.280;2023-02-01T15:37:25;8.13;;;2.20;;
25153;SDS011;47555;51.038;6.280;2023-02-01T15:42:46;8.88;;;3.22;;
25153;SDS011;47555;51.038;6.280;2023-02-01T15:45:16;9.95;;;2.38;;
25153;SDS011;47555;51.038;6.280;2023-02-01T15:47:46;12.60;;;2.55;;
25153;SDS011;47555;51.038;6.280;2023-02-01T15:50:15;12.63;;;2.50;;
25153;SDS011;47555;51.038;6.280;2023-02-01T15:52:45;17.05;;;3.03;;
25153;SDS011;47555;51.038;6.280;2023-02-01T15:57:57;9.77;;;3.72;;
25153;SDS011;47555;51.038;6.280;2023-02-01T16:00:24;8.20;;;2.83;;
25153;SDS011;47555;51.038;6.280;2023-02-01T16:02:59;7.70;;;2.58;;
25153;SDS011;47555;51.038;6.280;2023-02-01T16:08:00;9.07;;;2.90;;
25153;SDS011;47555;51.038;6.280;2023-02-01T16:13:05;7.70;;;2.45;;
25153;SDS011;47555;51.038;6.280;2023-02-01T16:15:31;8.23;;;2.83;;
25153;SDS011;47555;51.038;6.280;2023-02-01T16:17:56;10.35;;;2.75;;
25153;SDS011;47555;51.038;6.280;2023-02-01T16:20:21;12.90;;;2.92;;
25153;SDS011;47555;51.038;6.280;2023-02-01T16:22:47;8.05;;;2.92;;
25153;SDS011;47555;51.038;6.280;2023-02-01T16:25:12;11.23;;;3.25;;
25153;SDS011;47555;51.038;6.280;2023-02-01T16:27:38;12.10;;;2.20;;
25153;SDS011;47555;51.038;6.280;2023-02-01T16:30:04;13.55;;;3.72;;
25153;SDS011;47555;51.038;6.280;2023-02-01T16:32:29;6.03;;;2.92;;
25153;SDS011;47555;51.038;6.280;2023-02-01T16:34:56;8.60;;;2.63;;
25153;SDS011;47555;51.038;6.280;2023-02-01T16:37:23;7.38;;;3.22;;
25153;SDS011;47555;51.038;6.280;2023-02-01T16:39:50;14.07;;;3.20;;
25153;SDS011;47555;51.038;6.280;2023-02-01T16:42:15;7.78;;;2.75;;
25153;SDS011;47555;51.038;6.280;2023-02-01T16:44:41;10.68;;;3.17;;
25153;SDS011;47555;51.038;6.280;2023-02-01T16:47:15;9.05;;;2.65;;
25153;SDS011;47555;51.038;6.280;2023-02-01T16:49:43;13.93;;;2.95;;
25153;SDS011;47555;51.038;6.280;2023-02-01T16:52:11;8.88;;;2.65;;
25153;SDS011;47555;51.038;6.280;2023-02-01T16:54:40;10.80;;;2.60;;
25153;SDS011;47555;51.038;6.280;2023-02-01T16:57:10;12.13;;;3.25;;
25153;SDS011;47555;51.038;6.280;2023-02-01T16:59:37;8.13;;;2.40;;
25153;SDS011;47555;51.038;6.280;2023-02-01T17:02:02;9.52;;;2.28;;
25153;SDS011;47555;51.038;6.280;2023-02-01T17:04:28;9.55;;;2.95;;
25153;SDS011;47555;51.038;6.280;2023-02-01T17:06:53;10.38;;;2.65;;
25153;SDS011;47555;51.038;6.280;2023-02-01T17:09:19;7.72;;;2.30;;
25153;SDS011;47555;51.038;6.280;2023-02-01T17:11:45;9.70;;;2.60;;
25153;SDS011;47555;51.038;6.280;2023-02-01T17:14:18;9.10;;;2.83;;
25153;SDS011;47555;51.038;6.280;2023-02-01T17:16:47;11.80;;;2.50;;
25153;SDS011;47555;51.038;6.280;2023-02-01T17:19:14;14.82;;;3.53;;
25153;SDS011;47555;51.038;6.280;2023-02-01T17:21:44;12.50;;;3.00;;
25153;SDS011;47555;51.038;6.280;2023-02-01T17:24:12;15.20;;;2.95;;
25153;SDS011;47555;51.038;6.280;2023-02-01T17:26:39;14.32;;;2.92;;
25153;SDS011;47555;51.038;6.280;2023-02-01T17:29:05;9.63;;;2.40;;
25153;SDS011;47555;51.038;6.280;2023-02-01T17:31:30;9.27;;;2.50;;
25153;SDS011;47555;51.038;6.280;2023-02-01T17:34:01;15.77;;;3.22;;
25153;SDS011;47555;51.038;6.280;2023-02-01T17:36:26;12.90;;;3.20;;
25153;SDS011;47555;51.038;6.280;2023-02-01T17:38:52;9.70;;;2.83;;
25153;SDS011;47555;51.038;6.280;2023-02-01T17:41:17;10.40;;;2.47;;
25153;SDS011;47555;51.038;6.280;2023-02-01T17:43:43;8.35;;;3.22;;
25153;SDS011;47555;51.038;6.280;2023-02-01T17:46:13;12.10;;;3.58;;
25153;SDS011;47555;51.038;6.280;2023-02-01T17:48:39;13.02;;;2.97;;
25153;SDS011;47555;51.038;6.280;2023-02-01T17:51:10;8.32;;;2.95;;
25153;SDS011;47555;51.038;6.280;2023-02-01T17:53:41;12.95;;;2.90;;